Airfield :
LOGIN :

Register | Disclaimer

   EN    FR    IT 

 










Legend :    VFR   Marginal VFR   IFR   Intensive IFR   Very Intensive IFR
Visi :
Ceiling :
>= 8 km
>= 3000ft
5 to 8 km
1000 to 3000 ft
1500m to 5 km
500 to 1000 ft
800 to 1500m
200 to 500 ft
< 800m
< 200 ft
Symbols :   Thunderstorms  Fog  Heavy snow  Heavy precipitations  Wind > 20 kt
SIGMETs :     Misc.  Thunderstorms  Icing  Turbulence  Mountain Waves  Volcanic Ashes







- Airport Elevation : 821 ft
- IATA code : LYS
- Download approach charts


LFLL - Lyon St Exupéry / Satolas

CURRENT METAR :
  • 211100Z 20004KT 150V260 9999 FEW041 23/11 Q1013 NOSIG

EXPIRED METARs :
  • 211030Z VRB02KT 9999 FEW036 22/13 Q1013 NOSIG
  • 211000Z 24003KT 150V290 9999 FEW033 22/11 Q1013 NOSIG
  • 210930Z VRB03KT 9999 FEW030 SCT110 21/11 Q1013 NOSIG
  • 210900Z 13003KT 090V220 9999 FEW026 BKN110 20/12 Q1014 NOSIG
  • 210830Z VRB03KT 9999 FEW026 BKN100 19/12 Q1014 NOSIG

TAF TAF LFLL
Valid from the 21 at 06:00 until the 22 at 12:00 UTC


210500Z 2106/2212 18005KT CAVOK
BECMG 2109/2112 FEW050TCU
PROB40
TEMPO 2115/2122 VRB15KT SHRA FEW045CB SCT050TCU
PROB30
TEMPO 2116/2121 VRB15G25KT TSRA SCT045CB BKN050TCU
BECMG 2122/2124 CAVOK
BECMG 2210/2212 35005KT FEW050TCU
No reported NOTAMs for that airfield.



MET'MAP, your aeronautical weather chart ! - Copyright ORBIFLY December 2007 - Disclaimer

ORBIFLY MET'MAP TEAM :

Programming & Development : Alexandra Zaïnal
Concept & Development : Baudouin d'Aumeries
Co-Development & Prog : Marc-Olivier Méhu
Technical & hardware support : Manuel Goepfert

Contact : metmap@orbifly.com




SOURCES & CREDITS :

   NOAA